createdAt,value
2023-04-11T00:02:17.025Z,1.80
2023-04-11T00:04:44.474Z,1.88
2023-04-11T00:07:11.762Z,1.92
2023-04-11T00:09:39.041Z,2.10
2023-04-11T00:12:06.655Z,2.25
2023-04-11T00:14:45.574Z,2.30
2023-04-11T00:17:12.813Z,1.80
2023-04-11T00:19:39.986Z,1.88
2023-04-11T00:22:09.508Z,2.30
2023-04-11T00:24:36.495Z,1.70
2023-04-11T00:27:03.617Z,2.00
2023-04-11T00:29:30.649Z,2.33
2023-04-11T00:31:58.055Z,1.92
2023-04-11T00:34:25.225Z,1.83
2023-04-11T00:37:21.664Z,1.77
2023-04-11T00:39:53.021Z,2.00
2023-04-11T00:42:23.484Z,1.48
2023-04-11T00:44:51.188Z,1.83
2023-04-11T00:47:18.897Z,1.80
2023-04-11T00:49:46.584Z,1.60
2023-04-11T00:52:16.884Z,1.92
2023-04-11T00:54:45.535Z,1.77
2023-04-11T00:57:13.181Z,1.90
2023-04-11T00:59:46.152Z,2.05
2023-04-11T01:02:17.847Z,1.90
2023-04-11T01:04:45.635Z,1.67
2023-04-11T01:07:14.776Z,1.70
2023-04-11T01:09:42.896Z,2.05
2023-04-11T01:12:11.758Z,2.00
2023-04-11T01:14:39.675Z,1.83
2023-04-11T01:17:08.017Z,1.92
2023-04-11T01:19:35.467Z,1.83
2023-04-11T01:22:04.424Z,1.95
2023-04-11T01:24:33.822Z,2.47
2023-04-11T01:27:02.279Z,1.88
2023-04-11T01:29:30.375Z,1.90
2023-04-11T01:31:57.437Z,1.90
2023-04-11T01:34:28.500Z,1.88
2023-04-11T01:36:55.934Z,1.90
2023-04-11T01:39:23.202Z,1.80
2023-04-11T01:41:50.913Z,1.90
2023-04-11T01:44:21.261Z,2.30
2023-04-11T01:46:48.552Z,2.20
2023-04-11T01:49:18.072Z,2.08
2023-04-11T01:51:48.140Z,2.10
2023-04-11T01:54:15.586Z,2.40
2023-04-11T01:56:42.758Z,1.85
2023-04-11T01:59:09.943Z,2.10
2023-04-11T02:01:37.172Z,1.70
2023-04-11T02:04:04.491Z,2.00
2023-04-11T02:06:34.595Z,1.92
2023-04-11T02:09:01.991Z,1.90
2023-04-11T02:11:31.299Z,2.30
2023-04-11T02:13:58.404Z,2.33
2023-04-11T02:16:26.060Z,1.88
2023-04-11T02:18:54.357Z,1.92
2023-04-11T02:21:22.266Z,1.77
2023-04-11T02:23:49.292Z,2.35
2023-04-11T02:26:16.390Z,1.90
2023-04-11T02:28:43.397Z,2.28
2023-04-11T02:31:10.592Z,2.20
2023-04-11T02:33:37.738Z,2.58
2023-04-11T02:36:05.629Z,2.42
2023-04-11T02:38:32.722Z,2.58
2023-04-11T02:41:00.290Z,2.28
2023-04-11T02:43:27.280Z,2.33
2023-04-11T02:46:02.063Z,2.25
2023-04-11T02:48:34.313Z,2.25
2023-04-11T02:51:01.247Z,2.33
2023-04-11T02:53:28.218Z,2.85
2023-04-11T02:55:55.389Z,2.20
2023-04-11T02:58:25.944Z,2.78
2023-04-11T03:00:56.313Z,2.50
2023-04-11T03:03:23.501Z,3.03
2023-04-11T03:05:50.664Z,2.75
2023-04-11T03:08:22.396Z,2.90
2023-04-11T03:10:52.800Z,2.83
2023-04-11T03:13:21.751Z,2.17
2023-04-11T03:15:48.776Z,2.92
2023-04-11T03:18:16.930Z,2.47
2023-04-11T03:20:47.104Z,2.42
2023-04-11T03:23:15.861Z,2.40
2023-04-11T03:25:44.726Z,2.95
2023-04-11T03:28:12.982Z,2.60
2023-04-11T03:30:42.568Z,2.72
2023-04-11T03:33:12.353Z,3.20
2023-04-11T03:35:40.215Z,2.90
2023-04-11T03:38:07.239Z,2.38
2023-04-11T03:40:34.211Z,2.55
2023-04-11T03:43:09.502Z,3.03
2023-04-11T03:45:37.379Z,2.33
2023-04-11T03:48:08.447Z,1.83
2023-04-11T03:50:47.281Z,1.95
2023-04-11T03:53:47.268Z,2.00
2023-04-11T03:56:23.073Z,1.70
2023-04-11T03:58:50.247Z,1.70
2023-04-11T04:01:20.228Z,1.50
2023-04-11T04:03:50.137Z,1.40
2023-04-11T04:06:17.408Z,1.35
2023-04-11T04:11:14.411Z,1.33
2023-04-11T04:13:41.538Z,1.27
2023-04-11T04:16:14.673Z,1.10
2023-04-11T04:18:45.135Z,1.02
2023-04-11T04:21:12.292Z,1.02
2023-04-11T04:23:39.518Z,1.17
2023-04-11T04:26:42.105Z,1.00
2023-04-11T04:29:21.728Z,1.10
2023-04-11T04:31:53.040Z,0.95
2023-04-11T04:34:29.275Z,1.05
2023-04-11T04:36:59.721Z,1.02
2023-04-11T04:39:38.270Z,1.10
2023-04-11T04:42:07.325Z,0.90
2023-04-11T04:44:38.493Z,0.95
2023-04-11T04:47:13.361Z,1.08
2023-04-11T04:49:40.437Z,0.80
2023-04-11T04:52:07.454Z,0.80
2023-04-11T04:54:45.913Z,0.80
2023-04-11T04:57:13.062Z,0.80
2023-04-11T04:59:40.186Z,1.17
2023-04-11T05:02:11.738Z,1.25
2023-04-11T05:04:39.664Z,1.10
2023-04-11T05:07:06.761Z,1.52
2023-04-11T05:09:35.720Z,1.48
2023-04-11T05:12:16.124Z,1.85
2023-04-11T05:14:43.548Z,1.33
2023-04-11T05:17:10.761Z,1.08
2023-04-11T05:19:37.816Z,1.02
2023-04-11T05:22:05.411Z,1.00
2023-04-11T05:24:36.565Z,1.20
2023-04-11T05:27:07.185Z,0.93
2023-04-11T05:29:34.261Z,0.70
2023-04-11T05:32:06.772Z,0.90
2023-04-11T05:34:34.541Z,1.00
2023-04-11T05:37:01.845Z,1.38
2023-04-11T05:39:28.893Z,1.00
2023-04-11T05:41:57.252Z,0.90
2023-04-11T05:44:24.217Z,0.82
2023-04-11T05:46:51.204Z,1.20
2023-04-11T05:49:18.572Z,1.00
2023-04-11T05:51:45.771Z,1.05
2023-04-11T05:54:19.034Z,0.95
2023-04-11T06:09:20.706Z,1.20
2023-04-11T06:29:02.572Z,1.25
2023-04-11T06:31:54.856Z,1.20
2023-04-11T06:34:22.031Z,1.17
2023-04-11T06:36:49.983Z,0.80
2023-04-11T06:39:17.226Z,0.80
2023-04-11T06:41:44.453Z,0.70
2023-04-11T06:44:12.817Z,0.90
2023-04-11T06:46:39.910Z,0.90
2023-04-11T06:49:09.723Z,0.70
2023-04-11T06:54:04.380Z,0.70
2023-04-11T06:56:31.343Z,0.85
2023-04-11T06:58:58.594Z,1.00
2023-04-11T07:01:26.222Z,0.90
2023-04-11T07:03:53.711Z,0.80
2023-04-11T07:06:20.883Z,0.60
2023-04-11T07:08:47.916Z,0.80
2023-04-11T07:11:14.934Z,1.00
2023-04-11T07:13:41.999Z,1.60
2023-04-11T07:16:09.522Z,1.90
2023-04-11T07:18:36.566Z,1.83
2023-04-11T07:21:03.650Z,1.50
2023-04-11T07:23:30.708Z,1.92
2023-04-11T07:25:57.851Z,1.80
2023-04-11T07:28:25.163Z,1.45
2023-04-11T07:30:52.523Z,1.55
2023-04-11T07:33:19.550Z,1.30
2023-04-11T07:35:46.532Z,1.50
2023-04-11T07:38:14.169Z,1.58
2023-04-11T07:40:41.133Z,1.73
2023-04-11T07:43:08.131Z,1.38
2023-04-11T07:45:36.536Z,1.50
2023-04-11T07:48:03.746Z,1.80
2023-04-11T07:50:30.785Z,1.98
2023-04-11T07:52:57.860Z,1.80
2023-04-11T07:55:24.839Z,1.80
2023-04-11T07:57:51.892Z,1.30
2023-04-11T08:00:20.895Z,1.63
2023-04-11T08:02:48.155Z,1.83
2023-04-11T08:05:15.623Z,1.90
2023-04-11T08:07:42.921Z,1.98
2023-04-11T08:10:10.327Z,2.05
2023-04-11T08:12:37.570Z,1.70
2023-04-11T08:15:05.065Z,2.05
2023-04-11T08:17:37.972Z,1.85
2023-04-11T08:20:09.136Z,1.45
2023-04-11T08:22:36.527Z,2.03
2023-04-11T08:25:03.874Z,1.67
2023-04-11T08:27:30.916Z,1.13
2023-04-11T08:29:59.195Z,1.20
2023-04-11T08:32:26.501Z,1.60
2023-04-11T08:34:53.530Z,0.98
2023-04-11T08:37:20.607Z,1.52
2023-04-11T08:39:47.632Z,1.50
2023-04-11T08:42:30.601Z,2.25
2023-04-11T08:45:03.123Z,1.48
2023-04-11T08:47:30.409Z,1.42
2023-04-11T08:49:57.453Z,1.17
2023-04-11T08:52:25.646Z,1.52
2023-04-11T08:54:55.171Z,1.60
2023-04-11T08:57:27.722Z,1.45
2023-04-11T09:02:23.700Z,1.48
2023-04-11T09:04:51.691Z,1.20
2023-04-11T09:07:19.315Z,1.55
2023-04-11T09:09:46.565Z,1.33
2023-04-11T09:12:13.818Z,1.80
2023-04-11T09:14:41.212Z,1.30
2023-04-11T09:17:17.002Z,1.27
2023-04-11T09:19:45.127Z,1.27
2023-04-11T09:24:43.053Z,1.30
2023-04-11T09:27:13.845Z,1.10
2023-04-11T09:29:48.316Z,1.45
2023-04-11T09:32:33.335Z,1.25
2023-04-11T09:35:28.504Z,1.33
2023-04-11T09:37:57.647Z,1.30
2023-04-11T09:40:31.819Z,1.73
2023-04-11T09:43:01.650Z,1.50
2023-04-11T09:45:32.219Z,1.02
2023-04-11T09:48:03.827Z,1.30
2023-04-11T09:50:31.912Z,1.20
2023-04-11T09:52:59.431Z,1.33
2023-04-11T09:55:27.052Z,1.30
2023-04-11T09:57:55.129Z,1.23
2023-04-11T10:00:32.252Z,1.40
2023-04-11T10:02:59.461Z,0.90
2023-04-11T10:05:28.848Z,1.13
2023-04-11T10:08:09.002Z,1.38
2023-04-11T10:10:36.582Z,1.02
2023-04-11T10:13:24.037Z,1.25
2023-04-11T10:16:10.174Z,1.33
2023-04-11T10:18:38.669Z,1.15
2023-04-11T10:21:35.113Z,1.20
2023-04-11T10:24:26.299Z,1.23
2023-04-11T10:27:00.745Z,1.35
2023-04-11T10:29:33.871Z,1.25
2023-04-11T10:32:11.199Z,1.90
2023-04-11T10:34:50.839Z,1.50
2023-04-11T10:37:19.300Z,1.13
2023-04-11T10:39:55.376Z,1.05
2023-04-11T10:42:28.558Z,1.17
2023-04-11T10:45:27.438Z,1.25
2023-04-11T10:47:57.564Z,1.00
2023-04-11T10:50:27.711Z,1.35
2023-04-11T10:52:59.315Z,1.70
2023-04-11T10:55:28.076Z,1.30
2023-04-11T10:58:10.152Z,1.25
2023-04-11T11:00:55.683Z,1.52
2023-04-11T11:03:31.740Z,1.10
2023-04-11T11:06:07.361Z,1.05
2023-04-11T11:08:46.932Z,1.27
2023-04-11T11:11:16.094Z,1.27
2023-04-11T11:13:52.710Z,0.88
2023-04-11T11:16:26.783Z,1.48
2023-04-11T11:18:55.703Z,0.85
2023-04-11T11:21:27.775Z,1.35
2023-04-11T11:24:00.174Z,1.10
2023-04-11T11:26:37.298Z,1.38
2023-04-11T11:29:05.878Z,1.30
2023-04-11T11:31:39.342Z,1.08
2023-04-11T11:34:22.255Z,1.30
2023-04-11T11:36:51.260Z,0.60
2023-04-11T11:39:20.409Z,0.90
2023-04-11T11:44:24.046Z,1.05
2023-04-11T11:47:12.732Z,0.88
2023-04-11T11:49:54.272Z,1.23
2023-04-11T11:52:37.774Z,0.73
2023-04-11T11:55:11.416Z,1.10
2023-04-11T11:57:45.520Z,1.27
2023-04-11T12:00:14.017Z,1.20
2023-04-11T12:02:43.179Z,1.33
2023-04-11T12:05:13.780Z,1.15
2023-04-11T12:07:41.025Z,1.15
2023-04-11T12:10:13.526Z,1.48
2023-04-11T12:12:53.326Z,1.27
2023-04-11T12:15:26.613Z,0.90
2023-04-11T12:17:55.119Z,1.33
2023-04-11T12:20:26.904Z,1.50
2023-04-11T12:22:55.306Z,1.30
2023-04-11T12:25:23.094Z,1.33
2023-04-11T12:27:50.364Z,1.05
2023-04-11T12:30:17.556Z,1.33
2023-04-11T12:32:45.385Z,1.20
2023-04-11T12:35:13.070Z,1.10
2023-04-11T12:37:40.540Z,1.40
2023-04-11T12:40:12.619Z,1.00
2023-04-11T12:42:49.084Z,0.55
2023-04-11T12:45:22.971Z,1.05
2023-04-11T12:47:50.150Z,1.08
2023-04-11T12:50:17.224Z,1.10
2023-04-11T12:52:44.268Z,1.00
2023-04-11T12:55:13.861Z,1.58
2023-04-11T12:57:41.675Z,1.25
2023-04-11T13:00:11.455Z,1.20
2023-04-11T13:02:43.945Z,1.30
2023-04-11T13:05:15.365Z,1.30
2023-04-11T13:07:44.833Z,1.17
2023-04-11T13:10:14.014Z,1.30
2023-04-11T13:12:44.537Z,1.23
2023-04-11T13:15:14.105Z,1.10
2023-04-11T13:17:41.144Z,1.40
2023-04-11T13:20:12.949Z,1.38
2023-04-11T13:22:41.966Z,1.40
2023-04-11T13:25:10.352Z,1.40
2023-04-11T13:27:39.467Z,1.05
2023-04-11T13:30:07.822Z,0.90
2023-04-11T13:32:34.851Z,0.90
2023-04-11T13:35:02.254Z,1.00
2023-04-11T13:37:29.383Z,1.30
2023-04-11T13:39:56.431Z,1.10
2023-04-11T13:42:23.416Z,1.08
2023-04-11T13:44:50.371Z,1.02
2023-04-11T13:47:17.322Z,1.10
2023-04-11T13:49:44.812Z,0.98
2023-04-11T13:52:11.767Z,1.25
2023-04-11T13:54:39.161Z,1.10
2023-04-11T13:57:09.412Z,0.70
2023-04-11T13:59:36.687Z,1.17
2023-04-11T14:02:03.865Z,0.95
2023-04-11T14:04:31.080Z,1.33
2023-04-11T14:06:58.187Z,1.20
2023-04-11T14:09:25.254Z,0.98
2023-04-11T14:11:52.198Z,0.98
2023-04-11T14:14:19.209Z,0.95
2023-04-11T14:16:46.219Z,0.70
2023-04-11T14:19:13.288Z,1.02
2023-04-11T14:21:40.339Z,1.30
2023-04-11T14:24:07.560Z,1.00
2023-04-11T14:26:34.597Z,1.20
2023-04-11T14:29:02.900Z,0.90
2023-04-11T14:31:30.418Z,1.13
2023-04-11T14:33:57.812Z,1.10
2023-04-11T14:36:24.983Z,0.98
2023-04-11T14:38:52.008Z,1.08
2023-04-11T14:41:19.465Z,1.05
2023-04-11T14:43:46.560Z,0.85
2023-04-11T14:46:14.741Z,0.90
2023-04-11T14:48:41.795Z,1.25
2023-04-11T14:51:08.829Z,1.38
2023-04-11T14:53:35.982Z,0.75
2023-04-11T14:56:06.560Z,0.90
2023-04-11T14:58:34.225Z,1.13
2023-04-11T15:01:01.423Z,0.47
2023-04-11T15:03:28.712Z,0.70
2023-04-11T15:05:55.942Z,0.80
2023-04-11T15:08:22.987Z,1.13
2023-04-11T15:10:54.068Z,1.13
2023-04-11T15:13:26.998Z,0.75
2023-04-11T15:15:54.448Z,0.98
2023-04-11T15:18:26.979Z,0.60
2023-04-11T15:20:55.426Z,0.82
2023-04-11T15:23:22.873Z,0.93
2023-04-11T15:25:54.345Z,1.10
2023-04-11T15:28:22.147Z,0.80
2023-04-11T15:30:51.029Z,0.85
2023-04-11T15:33:19.121Z,0.90
2023-04-11T15:35:46.448Z,1.10
2023-04-11T15:38:14.377Z,1.10
2023-04-11T15:40:41.375Z,1.25
2023-04-11T15:43:11.225Z,0.98
2023-04-11T15:48:06.942Z,0.60
2023-04-11T15:50:34.107Z,1.10
2023-04-11T15:53:01.157Z,1.42
2023-04-11T15:55:28.780Z,1.17
2023-04-11T15:57:56.648Z,1.23
2023-04-11T16:00:23.752Z,1.00
2023-04-11T16:02:51.357Z,0.47
2023-04-11T16:05:20.994Z,0.88
2023-04-11T16:07:48.208Z,1.05
2023-04-11T16:10:15.520Z,1.25
2023-04-11T16:12:42.620Z,1.10
2023-04-11T16:15:09.829Z,1.20
2023-04-11T16:17:36.865Z,0.75
2023-04-11T16:20:08.825Z,1.17
2023-04-11T16:22:37.630Z,1.25
2023-04-11T16:25:06.072Z,1.20
2023-04-11T16:27:33.255Z,0.90
2023-04-11T16:30:01.968Z,0.80
2023-04-11T16:32:29.091Z,1.23
2023-04-11T16:34:57.753Z,1.45
2023-04-11T16:37:25.028Z,1.30
2023-04-11T16:39:52.222Z,0.95
2023-04-11T16:42:19.586Z,1.58
2023-04-11T16:44:46.645Z,1.30
2023-04-11T16:47:13.657Z,1.17
2023-04-11T16:49:40.870Z,1.23
2023-04-11T16:52:07.819Z,1.30
2023-04-11T16:54:34.821Z,1.15
2023-04-11T16:57:01.818Z,0.93
2023-04-11T16:59:28.854Z,1.08
2023-04-11T17:01:56.041Z,1.50
2023-04-11T17:04:23.234Z,1.00
2023-04-11T17:06:50.425Z,1.27
2023-04-11T17:09:17.604Z,1.40
2023-04-11T17:11:44.628Z,1.02
2023-04-11T17:14:11.686Z,0.90
2023-04-11T17:16:38.783Z,0.90
2023-04-11T17:19:06.297Z,1.10
2023-04-11T17:21:33.260Z,1.05
2023-04-11T17:24:00.587Z,1.20
2023-04-11T17:26:27.872Z,1.20
2023-04-11T17:28:55.166Z,1.50
2023-04-11T17:31:22.219Z,0.95
2023-04-11T17:33:49.352Z,1.30
2023-04-11T17:36:16.368Z,1.00
2023-04-11T17:38:43.628Z,1.33
2023-04-11T17:41:15.128Z,1.17
2023-04-11T17:43:43.706Z,1.30
2023-04-11T17:46:10.798Z,1.10
2023-04-11T17:48:37.888Z,1.40
2023-04-11T17:51:05.700Z,1.10
2023-04-11T17:53:33.413Z,1.30
2023-04-11T17:56:05.914Z,1.10
2023-04-11T17:58:33.542Z,0.75
2023-04-11T18:01:00.581Z,1.20
2023-04-11T18:03:28.340Z,1.20
2023-04-11T18:05:56.380Z,1.20
2023-04-11T18:08:36.111Z,1.08
2023-04-11T18:11:11.034Z,1.85
2023-04-11T18:13:38.050Z,1.75
2023-04-11T18:16:05.228Z,1.45
2023-04-11T18:18:32.245Z,1.30
2023-04-11T18:21:06.643Z,0.90
2023-04-11T18:23:34.574Z,1.00
2023-04-11T18:26:01.585Z,1.00
2023-04-11T18:28:28.794Z,1.63
2023-04-11T18:30:55.953Z,0.90
2023-04-11T18:33:23.219Z,1.38
2023-04-11T18:35:50.394Z,1.23
2023-04-11T18:38:17.797Z,1.52
2023-04-11T18:40:44.907Z,1.17
2023-04-11T18:43:12.480Z,1.13
2023-04-11T18:45:40.156Z,1.00
2023-04-11T18:48:08.405Z,1.05
2023-04-11T18:50:39.041Z,1.08
2023-04-11T18:53:09.976Z,1.15
2023-04-11T18:55:40.343Z,1.38
2023-04-11T18:58:09.090Z,0.98
2023-04-11T19:00:39.155Z,1.42
2023-04-11T19:03:15.024Z,1.20
2023-04-11T19:05:44.061Z,1.42
2023-04-11T19:08:11.253Z,0.80
2023-04-11T19:10:38.359Z,1.02
2023-04-11T19:13:06.349Z,1.27
2023-04-11T19:15:33.474Z,1.38
2023-04-11T19:18:00.863Z,1.17
2023-04-11T19:20:28.376Z,1.00
2023-04-11T19:22:55.410Z,1.58
2023-04-11T19:25:22.490Z,2.08
2023-04-11T19:27:51.171Z,1.38
2023-04-11T19:30:18.194Z,1.52
2023-04-11T19:32:47.599Z,1.45
2023-04-11T19:35:15.192Z,1.95
2023-04-11T19:37:42.808Z,2.45
2023-04-11T19:40:16.731Z,2.22
2023-04-11T19:42:44.899Z,2.10
2023-04-11T19:45:12.460Z,1.60
2023-04-11T19:47:40.992Z,2.10
2023-04-11T19:50:15.375Z,1.38
2023-04-11T19:52:43.741Z,1.45
2023-04-11T19:55:11.815Z,1.63
2023-04-11T19:57:39.140Z,1.35
2023-04-11T20:00:15.192Z,1.20
2023-04-11T20:02:47.881Z,1.48
2023-04-11T20:05:22.182Z,1.23
2023-04-11T20:07:49.593Z,1.05
2023-04-11T20:10:27.524Z,1.60
2023-04-11T20:12:58.361Z,1.20
2023-04-11T20:15:25.711Z,1.40
2023-04-11T20:17:52.839Z,1.40
2023-04-11T20:20:20.381Z,1.48
2023-04-11T20:22:50.586Z,1.45
2023-04-11T20:25:17.615Z,1.17
2023-04-11T20:27:44.770Z,1.52
2023-04-11T20:30:13.173Z,1.48
2023-04-11T20:32:41.435Z,1.27
2023-04-11T20:35:09.982Z,1.08
2023-04-11T20:37:37.375Z,1.27
2023-04-11T20:40:09.927Z,1.45
2023-04-11T20:42:45.874Z,1.50
2023-04-11T20:45:18.283Z,1.30
2023-04-11T20:47:46.800Z,1.65
2023-04-11T20:50:15.989Z,1.38
2023-04-11T20:52:51.041Z,1.25
2023-04-11T20:55:28.835Z,1.20
2023-04-11T20:58:10.333Z,1.30
2023-04-11T21:00:39.800Z,1.38
2023-04-11T21:03:07.993Z,1.15
2023-04-11T21:05:35.907Z,1.45
2023-04-11T21:08:03.998Z,1.67
2023-04-11T21:10:31.233Z,1.40
2023-04-11T21:13:27.383Z,1.30
2023-04-11T21:15:54.828Z,1.50
2023-04-11T21:18:22.383Z,1.40
2023-04-11T21:20:49.755Z,1.55
2023-04-11T21:23:17.216Z,1.52
2023-04-11T21:25:44.494Z,1.38
2023-04-11T21:28:12.058Z,1.58
2023-04-11T21:30:39.716Z,1.52
2023-04-11T21:33:06.794Z,1.48
2023-04-11T21:35:34.021Z,1.40
2023-04-11T21:38:01.058Z,1.27
2023-04-11T21:40:28.073Z,1.80
2023-04-11T21:42:55.674Z,1.20
2023-04-11T21:45:23.386Z,1.33
2023-04-11T21:47:51.431Z,1.73
2023-04-11T21:50:18.827Z,1.60
2023-04-11T21:52:46.500Z,1.55
2023-04-11T21:55:15.155Z,1.30
2023-04-11T21:57:42.229Z,1.42
2023-04-11T22:00:13.560Z,1.73
2023-04-11T22:02:41.417Z,1.55
2023-04-11T22:05:09.609Z,1.75
2023-04-11T22:07:48.728Z,2.50
2023-04-11T22:10:23.990Z,1.58
2023-04-11T22:12:54.430Z,1.95
2023-04-11T22:15:21.684Z,2.10
2023-04-11T22:17:51.102Z,1.70
2023-04-11T22:22:45.534Z,1.45
2023-04-11T22:25:12.604Z,1.50
2023-04-11T22:27:39.675Z,1.30
2023-04-11T22:30:07.792Z,1.75
2023-04-11T22:32:34.902Z,1.50
2023-04-11T22:35:01.949Z,1.60
2023-04-11T22:37:29.000Z,1.83
2023-04-11T22:39:56.359Z,2.08
2023-04-11T22:42:23.324Z,1.77
2023-04-11T22:44:50.462Z,1.73
2023-04-11T22:47:21.895Z,2.03
2023-04-11T22:49:49.005Z,1.67
2023-04-11T22:52:19.065Z,2.17
2023-04-11T22:54:47.173Z,2.05
2023-04-11T22:57:21.745Z,1.75
2023-04-11T22:59:51.892Z,1.80
2023-04-11T23:02:24.969Z,1.90
2023-04-11T23:05:03.661Z,1.65
2023-04-11T23:07:37.154Z,1.67
2023-04-11T23:10:18.530Z,1.60
2023-04-11T23:12:51.591Z,1.48
2023-04-11T23:15:25.138Z,1.50
2023-04-11T23:17:55.646Z,1.38
2023-04-11T23:20:24.129Z,1.60
2023-04-11T23:22:57.802Z,1.75
2023-04-11T23:25:36.514Z,1.75
2023-04-11T23:28:10.046Z,1.42
2023-04-11T23:30:44.585Z,2.15
2023-04-11T23:33:24.322Z,1.92
2023-04-11T23:35:59.988Z,1.58
2023-04-11T23:38:39.944Z,1.95
2023-04-11T23:41:09.693Z,1.30
2023-04-11T23:46:10.470Z,1.77
2023-04-11T23:48:39.161Z,1.65
2023-04-11T23:51:11.434Z,1.67
2023-04-11T23:53:40.575Z,1.85
2023-04-11T23:56:12.118Z,1.90
2023-04-11T23:58:44.645Z,2.08
